createdAt,value
2018-12-06T00:01:58.960Z,19.87
2018-12-06T00:04:40.447Z,19.83
2018-12-06T00:07:13.611Z,18.43
2018-12-06T00:09:55.458Z,19.97
2018-12-06T00:12:37.640Z,20.53
2018-12-06T00:15:27.781Z,19.53
2018-12-06T00:18:01.063Z,18.57
2018-12-06T00:20:36.789Z,19.57
2018-12-06T00:23:18.076Z,23.40
2018-12-06T00:26:00.066Z,18.53
2018-12-06T00:28:32.498Z,22.37
2018-12-06T00:31:13.972Z,20.97
2018-12-06T00:33:55.874Z,19.10
2018-12-06T00:36:37.692Z,23.07
2018-12-06T00:39:09.003Z,20.57
2018-12-06T00:41:50.685Z,21.07
2018-12-06T00:44:21.922Z,21.03
2018-12-06T00:46:55.202Z,18.93
2018-12-06T00:52:36.936Z,28.27
2018-12-06T00:55:08.336Z,23.30
2018-12-06T00:57:41.384Z,22.20
2018-12-06T01:00:22.480Z,23.57
2018-12-06T01:02:55.105Z,20.37
2018-12-06T01:05:37.084Z,22.67
2018-12-06T01:08:09.708Z,19.33
2018-12-06T01:10:51.393Z,23.47
2018-12-06T01:13:26.153Z,21.07
2018-12-06T01:16:01.156Z,21.13
2018-12-06T01:18:33.924Z,20.17
2018-12-06T01:21:19.881Z,21.33
2018-12-06T01:24:01.861Z,23.37
2018-12-06T01:26:36.687Z,23.57
2018-12-06T01:29:11.603Z,27.70
2018-12-06T01:31:51.940Z,22.87
2018-12-06T01:34:33.461Z,22.17
2018-12-06T01:37:06.578Z,23.37
2018-12-06T01:39:48.393Z,21.20
2018-12-06T01:42:29.520Z,20.03
2018-12-06T01:45:04.566Z,19.17
2018-12-06T01:47:37.159Z,22.30
2018-12-06T01:50:18.272Z,19.73
2018-12-06T01:53:00.161Z,21.33
2018-12-06T01:55:42.143Z,22.40
2018-12-06T01:58:15.403Z,23.90
2018-12-06T02:00:56.828Z,23.30
2018-12-06T02:03:38.817Z,21.30
2018-12-06T02:06:20.937Z,22.60
2018-12-06T02:08:53.588Z,21.00
2018-12-06T02:11:35.535Z,20.57
2018-12-06T02:14:17.441Z,22.83
2018-12-06T02:16:59.703Z,22.43
2018-12-06T02:19:41.615Z,22.77
2018-12-06T02:22:19.473Z,20.63
2018-12-06T02:25:01.372Z,23.03
2018-12-06T02:27:34.647Z,21.40
2018-12-06T02:30:16.019Z,21.97
2018-12-06T02:32:47.396Z,23.30
2018-12-06T02:35:29.409Z,23.63
2018-12-06T02:38:02.816Z,21.13
2018-12-06T02:40:44.577Z,22.70
2018-12-06T02:43:26.611Z,23.00
2018-12-06T02:46:08.481Z,21.33
2018-12-06T02:48:41.730Z,22.73
2018-12-06T02:51:22.916Z,22.97
2018-12-06T02:54:12.324Z,27.57
2018-12-06T02:56:53.704Z,22.20
2018-12-06T02:59:35.753Z,24.57
2018-12-06T03:02:17.532Z,22.93
2018-12-06T03:04:48.831Z,23.23
2018-12-06T03:07:30.757Z,24.63
2018-12-06T03:10:12.808Z,20.17
2018-12-06T03:12:43.633Z,27.57
2018-12-06T03:15:25.641Z,23.43
2018-12-06T03:18:01.247Z,25.83
2018-12-06T03:20:36.480Z,26.57
2018-12-06T03:23:18.183Z,22.57
2018-12-06T03:25:52.971Z,24.73
2018-12-06T03:28:25.824Z,25.07
2018-12-06T03:30:56.986Z,24.93
2018-12-06T03:33:28.233Z,23.03
2018-12-06T03:36:10.207Z,22.60
2018-12-06T03:38:42.552Z,23.97
2018-12-06T03:41:13.958Z,22.00
2018-12-06T03:43:44.896Z,24.93
2018-12-06T03:46:16.180Z,24.97
2018-12-06T03:48:49.419Z,24.17
2018-12-06T03:51:19.933Z,21.83
2018-12-06T03:54:00.996Z,22.93
2018-12-06T03:56:42.876Z,25.40
2018-12-06T03:59:24.715Z,21.87
2018-12-06T04:02:06.091Z,20.10
2018-12-06T04:04:37.024Z,23.97
2018-12-06T04:07:19.069Z,22.80
2018-12-06T04:10:01.659Z,22.93
2018-12-06T04:12:34.590Z,21.57
2018-12-06T04:15:09.928Z,27.83
2018-12-06T04:17:42.384Z,24.20
2018-12-06T04:20:23.491Z,25.43
2018-12-06T04:23:04.685Z,25.20
2018-12-06T04:25:46.564Z,24.43
2018-12-06T04:28:18.949Z,25.67
2018-12-06T04:31:00.621Z,23.53
2018-12-06T04:33:36.236Z,23.50
2018-12-06T04:36:17.512Z,23.80
2018-12-06T04:38:52.257Z,24.43
2018-12-06T04:41:33.667Z,24.40
2018-12-06T04:44:15.900Z,22.00
2018-12-06T04:46:47.054Z,23.53
2018-12-06T04:49:18.306Z,23.20
2018-12-06T04:52:00.100Z,22.77
2018-12-06T04:54:35.736Z,26.53
2018-12-06T04:57:08.272Z,20.90
2018-12-06T04:59:43.833Z,23.77
2018-12-06T05:02:25.464Z,25.50
2018-12-06T05:05:06.594Z,23.83
2018-12-06T05:07:39.740Z,21.87
2018-12-06T05:10:20.859Z,21.53
2018-12-06T05:12:53.988Z,21.37
2018-12-06T05:15:36.136Z,21.80
2018-12-06T05:18:11.105Z,22.37
2018-12-06T05:20:52.185Z,21.97
2018-12-06T05:23:23.445Z,22.60
2018-12-06T05:25:56.623Z,22.73
2018-12-06T05:28:27.775Z,22.77
2018-12-06T05:31:09.689Z,23.40
2018-12-06T05:33:50.808Z,20.47
2018-12-06T05:36:32.712Z,21.80
2018-12-06T05:39:07.704Z,18.17
2018-12-06T05:41:49.144Z,20.10
2018-12-06T05:44:30.246Z,19.10
2018-12-06T05:47:06.160Z,18.13
2018-12-06T05:49:47.447Z,19.03
2018-12-06T05:52:29.338Z,17.97
2018-12-06T05:55:11.345Z,19.13
2018-12-06T05:57:45.597Z,19.17
2018-12-06T06:00:26.863Z,17.83
2018-12-06T06:03:20.241Z,22.40
2018-12-06T06:06:01.820Z,18.23
2018-12-06T06:08:37.755Z,16.80
2018-12-06T06:11:18.915Z,18.20
2018-12-06T06:14:00.996Z,16.10
2018-12-06T06:16:42.941Z,16.40
2018-12-06T06:19:17.695Z,17.20
2018-12-06T06:21:59.127Z,16.70
2018-12-06T06:27:32.187Z,19.67
2018-12-06T06:30:13.279Z,17.17
2018-12-06T06:32:54.444Z,16.43
2018-12-06T06:35:35.536Z,16.57
2018-12-06T06:38:08.628Z,15.40
2018-12-06T06:40:50.745Z,15.07
2018-12-06T06:43:25.635Z,14.20
2018-12-06T06:46:06.847Z,16.07
2018-12-06T06:48:40.043Z,14.97
2018-12-06T06:51:11.315Z,18.53
2018-12-06T06:53:53.272Z,15.33
2018-12-06T06:56:24.424Z,15.07
2018-12-06T06:58:58.537Z,16.07
2018-12-06T07:01:41.777Z,15.77
2018-12-06T07:04:23.716Z,18.03
2018-12-06T07:06:57.098Z,15.60
2018-12-06T07:09:28.237Z,14.90
2018-12-06T07:12:10.065Z,17.13
2018-12-06T07:14:51.844Z,15.00
2018-12-06T07:17:25.067Z,18.00
2018-12-06T07:20:07.189Z,14.57
2018-12-06T07:22:49.209Z,16.67
2018-12-06T07:25:31.033Z,14.67
2018-12-06T07:28:06.113Z,14.13
2018-12-06T07:30:43.570Z,16.40
2018-12-06T07:33:25.297Z,14.77
2018-12-06T07:36:06.443Z,15.87
2018-12-06T07:38:39.716Z,17.30
2018-12-06T07:41:21.601Z,15.80
2018-12-06T07:44:03.673Z,18.10
2018-12-06T07:46:45.577Z,14.00
2018-12-06T07:49:27.517Z,13.53
2018-12-06T07:52:08.684Z,15.33
2018-12-06T07:54:50.790Z,15.30
2018-12-06T07:57:23.138Z,15.17
2018-12-06T07:59:54.104Z,13.13
2018-12-06T08:02:36.018Z,14.17
2018-12-06T08:05:17.909Z,13.17
2018-12-06T08:07:50.368Z,15.30
2018-12-06T08:10:32.486Z,16.17
2018-12-06T08:13:14.363Z,16.23
2018-12-06T08:15:56.398Z,16.30
2018-12-06T08:18:31.852Z,14.20
2018-12-06T08:21:13.499Z,15.00
2018-12-06T08:23:55.396Z,15.37
2018-12-06T08:26:37.488Z,12.60
2018-12-06T08:29:10.035Z,12.97
2018-12-06T08:31:51.956Z,15.33
2018-12-06T08:34:33.683Z,13.93
2018-12-06T08:37:06.956Z,18.33
2018-12-06T08:39:48.824Z,12.37
2018-12-06T08:42:23.553Z,13.43
2018-12-06T08:45:05.055Z,15.47
2018-12-06T08:47:38.212Z,15.73
2018-12-06T08:50:21.200Z,15.30
2018-12-06T08:53:02.639Z,12.00
2018-12-06T08:55:44.648Z,16.00
2018-12-06T08:58:17.155Z,13.73
2018-12-06T09:00:52.039Z,13.97
2018-12-06T09:03:33.521Z,14.67
2018-12-06T09:06:14.665Z,12.43
2018-12-06T09:08:47.339Z,13.33
2018-12-06T09:11:29.276Z,17.73
2018-12-06T09:14:04.968Z,13.13
2018-12-06T09:16:46.526Z,12.57
2018-12-06T09:19:28.531Z,13.80
2018-12-06T09:22:10.417Z,14.60
2018-12-06T09:24:45.256Z,14.20
2018-12-06T09:27:18.104Z,12.30
2018-12-06T09:29:49.011Z,11.37
2018-12-06T09:32:30.808Z,13.83
2018-12-06T09:35:11.985Z,11.97
2018-12-06T09:37:45.251Z,12.93
2018-12-06T09:40:26.486Z,11.57
2018-12-06T09:43:08.348Z,10.73
2018-12-06T09:45:50.172Z,11.37
2018-12-06T09:48:23.424Z,11.07
2018-12-06T09:51:05.408Z,10.17
2018-12-06T09:53:46.515Z,10.73
2018-12-06T09:56:28.776Z,10.53
2018-12-06T09:59:01.664Z,10.53
2018-12-06T10:01:42.741Z,9.80
2018-12-06T10:04:23.811Z,9.83
2018-12-06T10:06:56.372Z,7.00
2018-12-06T10:09:38.371Z,9.20
2018-12-06T10:12:19.561Z,7.70
2018-12-06T10:14:54.866Z,7.57
2018-12-06T10:17:27.845Z,7.83
2018-12-06T10:19:59.114Z,9.10
2018-12-06T10:22:40.696Z,5.03
2018-12-06T10:25:21.764Z,5.50
2018-12-06T10:27:54.108Z,4.67
2018-12-06T10:30:26.441Z,6.73
2018-12-06T10:33:07.568Z,6.53
2018-12-06T10:35:49.472Z,8.13
2018-12-06T10:38:21.911Z,5.53
2018-12-06T10:41:03.623Z,6.03
2018-12-06T10:43:45.462Z,6.93
2018-12-06T10:46:23.127Z,7.30
2018-12-06T10:51:52.883Z,5.63
2018-12-06T10:54:34.688Z,5.40
2018-12-06T10:57:07.375Z,6.20
2018-12-06T10:59:49.212Z,6.63
2018-12-06T11:03:38.328Z,6.27
2018-12-06T11:06:19.444Z,5.87
2018-12-06T11:08:52.701Z,6.40
2018-12-06T11:11:34.660Z,7.60
2018-12-06T11:14:16.588Z,7.53
2018-12-06T11:16:58.460Z,5.53
2018-12-06T11:19:39.662Z,6.70
2018-12-06T11:22:21.500Z,6.37
2018-12-06T11:25:06.181Z,7.60
2018-12-06T11:27:38.619Z,6.23
2018-12-06T11:30:19.804Z,5.53
2018-12-06T11:33:01.700Z,6.13
2018-12-06T11:35:37.256Z,6.97
2018-12-06T11:38:12.193Z,6.20
2018-12-06T11:40:42.893Z,8.33
2018-12-06T11:43:24.816Z,7.73
2018-12-06T11:45:56.112Z,6.90
2018-12-06T11:48:29.311Z,5.37
2018-12-06T11:53:43.120Z,7.17
2018-12-06T11:56:24.969Z,5.53
2018-12-06T11:59:00.528Z,5.40
2018-12-06T12:01:41.807Z,5.17
2018-12-06T12:04:23.838Z,6.17
2018-12-06T12:06:56.975Z,5.40
2018-12-06T12:09:38.885Z,5.83
2018-12-06T12:12:20.878Z,6.37
2018-12-06T12:15:07.955Z,6.50
2018-12-06T12:17:40.907Z,5.40
2018-12-06T12:20:22.695Z,4.50
2018-12-06T12:23:03.829Z,5.17
2018-12-06T12:25:39.553Z,7.83
2018-12-06T12:28:12.087Z,6.27
2018-12-06T12:30:54.064Z,6.20
2018-12-06T12:33:35.194Z,5.07
2018-12-06T12:36:10.648Z,6.43
2018-12-06T12:38:45.687Z,5.17
2018-12-06T12:41:27.265Z,6.17
2018-12-06T12:44:09.188Z,4.93
2018-12-06T12:46:50.738Z,5.00
2018-12-06T12:49:27.924Z,6.47
2018-12-06T12:54:41.359Z,5.03
2018-12-06T12:57:14.569Z,6.97
2018-12-06T12:59:50.033Z,4.63
2018-12-06T13:02:31.391Z,6.10
2018-12-06T13:05:13.544Z,6.00
2018-12-06T13:07:48.836Z,6.57
2018-12-06T13:10:23.798Z,5.57
2018-12-06T13:13:05.297Z,5.87
2018-12-06T13:15:47.268Z,5.50
2018-12-06T13:18:22.792Z,5.07
2018-12-06T13:20:53.593Z,5.77
2018-12-06T13:23:36.540Z,5.13
2018-12-06T13:26:18.076Z,11.87
2018-12-06T13:28:51.299Z,7.20
2018-12-06T13:31:33.192Z,5.60
2018-12-06T13:34:15.157Z,4.20
2018-12-06T13:36:50.976Z,5.77
2018-12-06T13:39:32.077Z,5.07
2018-12-06T13:42:13.252Z,6.23
2018-12-06T13:44:55.181Z,8.00
2018-12-06T13:47:30.652Z,8.30
2018-12-06T13:50:12.133Z,6.43
2018-12-06T13:52:53.222Z,6.03
2018-12-06T13:55:28.740Z,6.83
2018-12-06T13:58:01.368Z,6.13
2018-12-06T14:00:43.205Z,7.17
2018-12-06T14:03:14.325Z,7.03
2018-12-06T14:05:47.440Z,5.60
2018-12-06T14:08:20.174Z,4.90
2018-12-06T14:11:01.848Z,5.47
2018-12-06T14:13:36.588Z,6.23
2018-12-06T14:16:17.872Z,6.50
2018-12-06T14:18:51.180Z,6.20
2018-12-06T14:21:33.180Z,8.23
2018-12-06T14:24:04.448Z,5.73
2018-12-06T14:26:46.427Z,5.97
2018-12-06T14:29:17.700Z,6.00
2018-12-06T14:31:58.802Z,7.40
2018-12-06T14:34:39.913Z,6.47
2018-12-06T14:37:13.240Z,6.27
2018-12-06T14:39:48.606Z,6.47
2018-12-06T14:42:30.005Z,9.67
2018-12-06T14:45:12.029Z,6.67
2018-12-06T14:47:47.680Z,7.07
2018-12-06T14:50:29.200Z,5.37
2018-12-06T14:53:00.216Z,7.77
2018-12-06T14:55:42.100Z,4.57
2018-12-06T14:58:22.764Z,4.57
2018-12-06T15:01:04.056Z,5.07
2018-12-06T15:03:38.799Z,5.63
2018-12-06T15:06:13.850Z,6.33
2018-12-06T15:08:46.476Z,4.77
2018-12-06T15:11:19.787Z,4.87
2018-12-06T15:13:53.025Z,4.77
2018-12-06T15:16:35.008Z,3.93
2018-12-06T15:19:10.632Z,3.73
2018-12-06T15:21:52.105Z,4.27
2018-12-06T15:24:27.641Z,4.53
2018-12-06T15:26:59.211Z,5.67
2018-12-06T15:29:41.348Z,3.80
2018-12-06T15:32:23.270Z,3.67
2018-12-06T15:35:05.789Z,3.03
2018-12-06T15:37:40.661Z,4.43
2018-12-06T15:40:21.952Z,4.03
2018-12-06T15:42:57.612Z,3.53
2018-12-06T15:45:38.779Z,5.70
2018-12-06T15:48:14.404Z,3.50
2018-12-06T15:50:56.023Z,4.40
2018-12-06T15:53:31.634Z,4.70
2018-12-06T15:56:13.013Z,4.87
2018-12-06T15:58:46.111Z,5.60
2018-12-06T16:01:17.244Z,2.73
2018-12-06T16:03:58.356Z,3.23
2018-12-06T16:06:34.027Z,4.00
2018-12-06T16:09:08.808Z,3.43
2018-12-06T16:11:50.783Z,3.63
2018-12-06T16:14:22.040Z,2.70
2018-12-06T16:17:03.849Z,5.83
2018-12-06T16:19:45.744Z,2.90
2018-12-06T16:22:32.849Z,2.90
2018-12-06T16:25:13.984Z,3.17
2018-12-06T16:27:47.228Z,3.13
2018-12-06T16:30:29.202Z,2.73
2018-12-06T16:33:02.399Z,2.37
2018-12-06T16:35:44.464Z,4.47
2018-12-06T16:38:17.604Z,3.70
2018-12-06T16:40:58.756Z,3.77
2018-12-06T16:43:39.838Z,4.43
2018-12-06T16:46:21.013Z,5.27
2018-12-06T16:48:54.272Z,5.80
2018-12-06T16:51:35.404Z,4.90
2018-12-06T16:54:16.541Z,3.33
2018-12-06T16:59:21.679Z,1.87
2018-12-06T17:02:03.470Z,2.83
2018-12-06T17:04:45.502Z,3.83
2018-12-06T17:07:18.767Z,7.40
2018-12-06T17:09:59.914Z,3.90
2018-12-06T17:12:40.964Z,4.40
2018-12-06T17:15:12.177Z,3.63
2018-12-06T17:17:45.178Z,4.03
2018-12-06T17:20:26.241Z,7.63
2018-12-06T17:23:08.113Z,17.77
2018-12-06T17:25:49.189Z,14.30
2018-12-06T17:28:22.534Z,8.63
2018-12-06T17:31:04.468Z,10.93
2018-12-06T17:33:37.783Z,6.73
2018-12-06T17:36:18.710Z,8.90
2018-12-06T17:38:51.892Z,7.60
2018-12-06T17:41:33.392Z,7.33
2018-12-06T17:44:15.432Z,4.80
2018-12-06T17:46:59.517Z,4.97
2018-12-06T17:49:41.497Z,3.87
2018-12-06T17:52:23.421Z,3.27
2018-12-06T17:55:05.718Z,4.37
2018-12-06T17:57:41.228Z,4.47
2018-12-06T18:10:30.440Z,6.83
2018-12-06T18:13:11.816Z,4.50
2018-12-06T18:15:44.826Z,4.43
2018-12-06T18:18:17.713Z,6.10
2018-12-06T18:20:59.177Z,10.03
2018-12-06T18:23:41.164Z,8.87
2018-12-06T18:26:12.386Z,7.47
2018-12-06T18:28:45.527Z,6.27
2018-12-06T18:31:27.621Z,4.40
2018-12-06T18:34:09.001Z,6.80
2018-12-06T18:36:50.616Z,7.33
2018-12-06T18:39:32.524Z,10.57
2018-12-06T18:42:13.759Z,6.10
2018-12-06T18:44:47.083Z,8.57
2018-12-06T18:47:20.181Z,11.03
2018-12-06T18:50:02.187Z,5.97
2018-12-06T18:52:44.196Z,5.13
2018-12-06T18:55:20.912Z,6.67
2018-12-06T18:57:54.393Z,4.37
2018-12-06T19:00:25.069Z,5.33
2018-12-06T19:03:07.392Z,6.17
2018-12-06T19:05:40.146Z,15.20
2018-12-06T19:08:13.120Z,8.17
2018-12-06T19:13:27.269Z,11.23
2018-12-06T19:16:09.320Z,4.57
2018-12-06T19:18:45.265Z,7.13
2018-12-06T19:21:27.092Z,5.97
2018-12-06T19:24:08.187Z,4.40
2018-12-06T19:26:50.162Z,9.87
2018-12-06T19:29:24.276Z,6.00
2018-12-06T19:32:03.380Z,6.73
2018-12-06T19:34:44.887Z,18.47
2018-12-06T19:37:47.472Z,10.00
2018-12-06T19:40:29.231Z,7.10
2018-12-06T19:43:12.046Z,7.87
2018-12-06T19:45:53.997Z,7.10
2018-12-06T19:48:28.968Z,6.57
2018-12-06T19:51:10.839Z,7.53
2018-12-06T19:53:53.652Z,6.50
2018-12-06T19:56:40.337Z,6.97
2018-12-06T19:59:14.018Z,8.47
2018-12-06T20:01:55.184Z,6.57
2018-12-06T20:04:37.278Z,14.27
2018-12-06T20:07:10.409Z,15.47
2018-12-06T20:09:52.317Z,18.03
2018-12-06T20:12:36.192Z,6.63
2018-12-06T20:15:18.129Z,4.30
2018-12-06T20:17:51.480Z,3.40
2018-12-06T20:20:33.380Z,7.80
2018-12-06T20:23:05.782Z,3.33
2018-12-06T20:25:47.841Z,4.10
2018-12-06T20:28:26.572Z,4.83
2018-12-06T20:31:08.689Z,4.00
2018-12-06T20:33:39.813Z,6.23
2018-12-06T20:36:21.925Z,3.57
2018-12-06T20:38:55.215Z,3.47
2018-12-06T20:41:37.143Z,5.13
2018-12-06T20:44:15.192Z,6.00
2018-12-06T20:46:57.025Z,4.30
2018-12-06T20:49:36.016Z,4.10
2018-12-06T20:52:18.380Z,5.53
2018-12-06T20:55:02.041Z,4.67
2018-12-06T20:57:37.428Z,4.93
2018-12-06T21:00:18.944Z,4.70
2018-12-06T21:03:00.807Z,4.23
2018-12-06T21:05:42.724Z,4.70
2018-12-06T21:08:18.052Z,5.13
2018-12-06T21:10:59.872Z,4.87
2018-12-06T21:13:41.790Z,4.17
2018-12-06T21:16:25.394Z,4.40
2018-12-06T21:19:05.388Z,3.97
2018-12-06T21:21:36.312Z,4.67
2018-12-06T21:24:22.064Z,5.90
2018-12-06T21:26:55.536Z,6.37
2018-12-06T21:29:37.092Z,4.60
2018-12-06T21:32:19.040Z,4.80
2018-12-06T21:35:01.112Z,4.93
2018-12-06T21:37:36.683Z,4.70
2018-12-06T21:40:07.891Z,4.73
2018-12-06T21:42:49.244Z,4.40
2018-12-06T21:45:31.351Z,8.33
2018-12-06T21:48:05.010Z,7.37
2018-12-06T21:50:39.804Z,4.73
2018-12-06T21:53:21.544Z,5.50
2018-12-06T21:55:57.040Z,11.30
2018-12-06T21:58:38.270Z,10.07
2018-12-06T22:01:18.534Z,7.40
2018-12-06T22:04:03.370Z,6.17
2018-12-06T22:06:51.061Z,8.83
2018-12-06T22:09:38.616Z,6.80
2018-12-06T22:12:18.499Z,7.10
2018-12-06T22:15:05.222Z,6.70
2018-12-06T22:17:48.279Z,7.70
2018-12-06T22:20:30.051Z,5.77
2018-12-06T22:23:14.819Z,5.80
2018-12-06T22:26:01.114Z,5.40
2018-12-06T22:28:43.207Z,5.77
2018-12-06T22:31:15.580Z,5.20
2018-12-06T22:33:57.296Z,5.57
2018-12-06T22:36:39.304Z,6.37
2018-12-06T22:39:14.069Z,8.93
2018-12-06T22:41:55.322Z,15.23
2018-12-06T22:44:37.360Z,13.10
2018-12-06T22:47:10.408Z,7.80
2018-12-06T22:49:52.377Z,7.30
2018-12-06T22:52:35.559Z,6.80
2018-12-06T22:55:06.813Z,7.30
2018-12-06T22:57:39.682Z,8.00
2018-12-06T23:00:23.692Z,12.40
2018-12-06T23:03:04.881Z,11.03
2018-12-06T23:05:36.404Z,7.67
2018-12-06T23:08:09.417Z,7.17
2018-12-06T23:10:50.554Z,6.27
2018-12-06T23:13:32.520Z,4.70
2018-12-06T23:16:13.616Z,5.10
2018-12-06T23:18:46.135Z,5.80
2018-12-06T23:21:28.029Z,4.57
2018-12-06T23:24:09.229Z,3.90
2018-12-06T23:26:50.431Z,3.97
2018-12-06T23:29:23.542Z,4.20
2018-12-06T23:32:05.392Z,3.90
2018-12-06T23:34:46.744Z,6.37
2018-12-06T23:37:17.688Z,4.80
2018-12-06T23:39:59.752Z,6.13
2018-12-06T23:42:41.534Z,3.70
2018-12-06T23:45:23.657Z,4.00
2018-12-06T23:47:55.984Z,4.43
2018-12-06T23:50:38.000Z,6.40
2018-12-06T23:53:19.877Z,4.73
2018-12-06T23:56:02.135Z,4.03
2018-12-06T23:58:37.527Z,4.20
